Skip Navigation Links Skip Navigation Links

Current Weather

Eureka, Nunavut

For information only: do not use for flight planning or navigation.
Latest weather
Observation time Thursday, June 21, 2018 4:00 PM CDT
Local time Thursday, June 21, 2018 4:55 PM CDT
Flight conditions Visual Meteorological Conditions
Winds
Wind direction West (270°)
Wind speed 9 mph
Visibility 15 mi.
Sky condition
Ceiling unlimited
Cloud layer few clouds 3,000 ft.
Cloud layer few clouds 3,700 ft.
Cloud layer scattered clouds 20,000 ft.
Cloud layer scattered clouds 21,000 ft.
Temperature 46°F
Dewpoint 34°F
Altimeter 29.58 in.Hg
Derived measurements
Relative humidity 61%
Wind chill 42°F
Density altitude -314 ft.
Sea-level pressure 29.59 in.Hg
METAR CWEU 212100Z 27008KT 15SM FEW030 FEW037 SCT200 SCT210 08/01 A2958 RMK CU2SC1CC2CI1 SC TR CI TR SLP019

Settings

Location code

InnerDrive.Weather 4.0.6615.0 Release CLR 4.0.30319.42000
Copyright ©2018 Inner Drive Technology. All rights reserved. Portions Copyright ©1986-2018 David Braverman.

Find weather

Site navigation


Skip Navigation Links

Place info

Page info

PayPal - The safer, easier way to pay online!

Return home.

Copyright ©2018 Inner Drive Technology. Purveyors of fine, hand-crafted computer software. Page printed 2018-06-21T21:55:11 UTC.